Time;durP1;ratioP1;P1;durP2;ratioP2;P2;SDS_P1;SDS_P2;PMS_P1;PMS_P2;Temp;Humidity;BMP_temperature;BMP_pressure;BME280_temperature;BME280_humidity;BME280_pressure;Samples;Min_cycle;Max_cycle;Signal;HPM_P1;HPM_P2
2022/06/18 00:00:45;;;;;;;3.67;2.65;;;;;;;16.28;100.00;97296.13;5014081;28;20041;-66
2022/06/18 00:03:11;;;;;;;3.53;2.58;;;;;;;16.34;100.00;97289.84;5003097;28;20034;-67
2022/06/18 00:05:38;;;;;;;4.45;2.50;;;;;;;16.36;100.00;97279.19;5003046;28;20434;-66
2022/06/18 00:08:10;;;;;;;6.90;3.83;;;;;;;16.30;100.00;97286.28;4998368;28;20046;-67
2022/06/18 00:10:35;;;;;;;8.13;3.00;;;;;;;16.32;100.00;97280.38;4996022;28;20034;-66
2022/06/18 00:13:40;;;;;;;10.68;3.55;;;;;;;16.28;100.00;97274.84;5002461;28;20084;-66
2022/06/18 00:16:10;;;;;;;6.18;3.53;;;;;;;16.12;100.00;97280.69;4985703;28;20151;-65
2022/06/18 00:18:35;;;;;;;7.75;4.03;;;;;;;16.05;100.00;97280.66;5001173;28;20189;-66
2022/06/18 00:21:03;;;;;;;4.65;2.97;;;;;;;16.05;100.00;97275.16;5002025;28;20082;-67
2022/06/18 00:23:30;;;;;;;8.02;4.40;;;;;;;15.83;100.00;97274.25;4979353;28;20487;-65
2022/06/18 00:25:55;;;;;;;8.73;4.35;;;;;;;15.52;100.00;97268.16;4984143;28;20046;-67
2022/06/18 00:28:24;;;;;;;7.88;4.18;;;;;;;15.62;100.00;97274.91;4995442;28;20473;-67
2022/06/18 00:30:51;;;;;;;5.68;2.72;;;;;;;15.55;100.00;97272.88;5003201;28;20045;-67
2022/06/18 00:33:18;;;;;;;10.27;3.22;;;;;;;15.70;100.00;97272.97;4998292;28;20123;-66
2022/06/18 00:35:45;;;;;;;5.57;3.42;;;;;;;15.85;100.00;97267.16;5003261;28;20042;-65
2022/06/18 00:38:19;;;;;;;9.23;3.30;;;;;;;15.93;100.00;97273.50;4998535;28;20044;-66
2022/06/18 00:40:45;;;;;;;7.03;3.15;;;;;;;15.92;100.00;97260.88;5017188;28;20197;-65
2022/06/18 00:43:22;;;;;;;5.60;3.15;;;;;;;15.92;100.00;97265.59;4996760;28;20041;-65
2022/06/18 00:45:50;;;;;;;7.65;3.25;;;;;;;15.70;100.00;97261.91;4997299;28;20038;-66
2022/06/18 00:48:34;;;;;;;6.95;2.90;;;;;;;15.55;100.00;97250.81;4995551;28;20045;-65
2022/06/18 00:51:08;;;;;;;3.58;2.88;;;;;;;15.52;100.00;97248.84;5001744;28;20448;-65
2022/06/18 00:53:43;;;;;;;4.38;2.58;;;;;;;15.55;100.00;97244.50;5001379;28;20092;-66
2022/06/18 00:56:16;;;;;;;4.40;2.85;;;;;;;15.50;100.00;97242.88;4994125;28;20111;-68
2022/06/18 00:58:56;;;;;;;4.50;2.88;;;;;;;15.52;100.00;97248.03;5002393;28;20057;-67
2022/06/18 01:01:29;;;;;;;6.03;2.90;;;;;;;15.65;100.00;97244.56;4997306;28;20101;-65
2022/06/18 01:03:55;;;;;;;5.10;3.17;;;;;;;15.76;100.00;97249.38;5001877;28;20065;-65
2022/06/18 01:06:33;;;;;;;3.60;2.38;;;;;;;15.94;100.00;97250.25;4994513;28;20071;-67
2022/06/18 01:09:07;;;;;;;7.25;3.08;;;;;;;15.91;100.00;97245.47;5002578;28;20136;-66
2022/06/18 01:11:39;;;;;;;6.78;2.60;;;;;;;15.95;100.00;97254.56;5001287;28;20757;-67
2022/06/18 01:14:09;;;;;;;6.00;2.92;;;;;;;15.95;100.00;97248.25;4996071;28;20038;-66
2022/06/18 01:16:36;;;;;;;3.97;3.00;;;;;;;15.96;100.00;97250.63;5002046;28;20054;-67
2022/06/18 01:19:05;;;;;;;7.35;2.88;;;;;;;15.98;100.00;97248.28;5004879;28;20053;-72
2022/06/18 01:21:44;;;;;;;4.38;2.85;;;;;;;15.95;100.00;97251.81;5004551;28;20048;-65
2022/06/18 01:24:13;;;;;;;4.18;2.92;;;;;;;15.83;100.00;97252.94;4999548;28;20525;-67
2022/06/18 01:26:39;;;;;;;7.60;2.97;;;;;;;15.86;100.00;97248.63;4994192;28;20047;-72
2022/06/18 01:29:05;;;;;;;6.65;3.10;;;;;;;15.77;100.00;97242.66;4979500;28;20384;-71
2022/06/18 01:31:31;;;;;;;4.50;2.55;;;;;;;15.69;100.00;97241.81;4983052;28;20057;-66
2022/06/18 01:33:57;;;;;;;5.25;2.75;;;;;;;15.64;100.00;97234.69;4986283;28;20081;-68
2022/06/18 01:36:23;;;;;;;5.80;2.88;;;;;;;15.60;100.00;97235.84;4997114;28;20751;-67
2022/06/18 01:38:49;;;;;;;10.20;2.78;;;;;;;15.58;100.00;97235.44;5002049;28;20041;-66
2022/06/18 01:44:07;;;;;;;4.55;3.03;;;;;;;15.53;100.00;97231.06;5002438;28;20065;-67
2022/06/18 01:46:35;;;;;;;4.97;3.03;;;;;;;15.51;100.00;97229.91;4998660;28;20046;-68
2022/06/18 01:49:04;;;;;;;3.92;2.53;;;;;;;15.50;100.00;97231.84;5002170;28;20082;-67
2022/06/18 01:51:33;;;;;;;5.43;3.00;;;;;;;15.48;100.00;97236.97;5001529;28;20045;-68
2022/06/18 01:54:01;;;;;;;;;;;;;;;15.53;100.00;97230.28;5003003;28;20041;-67
2022/06/18 01:56:34;;;;;;;4.25;2.70;;;;;;;15.47;100.00;97238.94;5012573;28;19965;-66
2022/06/18 01:59:13;;;;;;;5.07;2.67;;;;;;;15.48;100.00;97232.25;5001398;28;20074;-68
2022/06/18 02:01:41;;;;;;;5.13;2.47;;;;;;;15.49;100.00;97231.06;5001791;28;20053;-66
2022/06/18 02:04:07;;;;;;;5.47;2.50;;;;;;;15.37;100.00;97230.59;5000163;28;20061;-68
2022/06/18 02:06:35;;;;;;;5.82;2.83;;;;;;;15.43;100.00;97235.38;5011370;28;20042;-68
2022/06/18 02:09:04;;;;;;;4.25;3.17;;;;;;;15.49;100.00;97233.03;5029709;28;20101;-73
2022/06/18 02:11:30;;;;;;;5.05;2.33;;;;;;;15.45;100.00;97233.00;5028983;28;20038;-73
2022/06/18 02:14:02;;;;;;;5.05;2.78;;;;;;;15.38;100.00;97235.72;5013418;28;20098;-67
2022/06/18 02:16:30;;;;;;;4.93;2.78;;;;;;;15.36;100.00;97229.00;5004206;28;20049;-68
2022/06/18 02:18:59;;;;;;;8.93;3.15;;;;;;;15.32;100.00;97236.47;5006330;28;20045;-69
2022/06/18 02:21:24;;;;;;;5.47;3.20;;;;;;;15.23;100.00;97239.56;5001808;28;20214;-66
2022/06/18 02:23:51;;;;;;;6.25;3.20;;;;;;;15.18;100.00;97243.50;5001899;28;20125;-65
2022/06/18 02:26:18;;;;;;;10.52;3.35;;;;;;;15.13;100.00;97235.56;4991139;28;20054;-68
2022/06/18 02:28:44;;;;;;;7.00;3.05;;;;;;;15.01;100.00;97230.34;5006788;28;20077;-72
2022/06/18 02:31:17;;;;;;;11.55;3.25;;;;;;;14.94;100.00;97230.31;5001262;28;20046;-68
2022/06/18 02:33:47;;;;;;;17.98;3.47;;;;;;;14.61;100.00;97230.03;5005263;28;20402;-66
2022/06/18 02:36:17;;;;;;;6.85;3.15;;;;;;;14.70;100.00;97235.22;5007530;28;20475;-67
2022/06/18 02:38:44;;;;;;;5.38;2.90;;;;;;;14.76;100.00;97235.69;5026134;28;20065;-71
2022/06/18 02:41:10;;;;;;;5.05;2.90;;;;;;;14.75;100.00;97221.09;5019859;28;20145;-69
2022/06/18 02:43:38;;;;;;;6.15;3.35;;;;;;;14.81;100.00;97219.56;5019975;28;20076;-67
2022/06/18 02:46:04;;;;;;;6.03;2.88;;;;;;;15.01;100.00;97230.34;5005867;28;20033;-71
2022/06/18 02:48:32;;;;;;;6.85;2.90;;;;;;;15.02;100.00;97231.94;5001612;28;20468;-68
2022/06/18 02:50:59;;;;;;;7.93;2.90;;;;;;;15.06;100.00;97230.00;5004548;28;20054;-69
2022/06/18 02:53:26;;;;;;;7.60;3.00;;;;;;;15.09;100.00;97229.25;4993927;28;20046;-68
2022/06/18 02:55:55;;;;;;;9.27;3.17;;;;;;;15.06;100.00;97236.31;5018800;28;20129;-68
2022/06/18 02:58:26;;;;;;;3.85;2.60;;;;;;;14.99;100.00;97232.72;5016870;28;20041;-70
2022/06/18 03:00:54;;;;;;;7.15;3.05;;;;;;;14.98;100.00;97231.94;5015063;28;20053;-67
2022/06/18 03:03:24;;;;;;;4.45;2.90;;;;;;;14.82;100.00;97228.63;4990781;28;20046;-68
2022/06/18 03:05:52;;;;;;;6.53;3.33;;;;;;;14.83;100.00;97231.00;5004583;28;20030;-68
2022/06/18 03:08:20;;;;;;;9.95;2.83;;;;;;;14.80;100.00;97236.47;4999244;28;20045;-66
2022/06/18 03:13:29;;;;;;;8.75;3.25;;;;;;;14.79;100.00;97226.66;5003202;28;20053;-67
2022/06/18 03:15:56;;;;;;;7.95;3.22;;;;;;;14.78;100.00;97225.06;5002692;28;20057;-69
2022/06/18 03:18:25;;;;;;;5.50;3.05;;;;;;;14.75;100.00;97223.88;4988556;28;20249;-68
2022/06/18 03:21:02;;;;;;;8.50;3.42;;;;;;;14.77;100.00;97220.72;5001919;28;20386;-68
2022/06/18 03:23:29;;;;;;;6.85;2.92;;;;;;;14.71;100.00;97214.75;4993883;28;20053;-67
2022/06/18 03:25:55;;;;;;;6.97;3.05;;;;;;;14.62;100.00;97219.78;5005107;28;20049;-68
2022/06/18 03:28:22;;;;;;;11.45;3.72;;;;;;;14.35;100.00;97222.69;5000781;28;20039;-69
2022/06/18 03:30:47;;;;;;;5.47;3.05;;;;;;;14.22;100.00;97222.13;5005492;28;20037;-66
2022/06/18 03:33:13;;;;;;;10.85;3.38;;;;;;;14.23;100.00;97223.75;4989833;28;20061;-67
2022/06/18 03:35:43;;;;;;;5.60;3.47;;;;;;;14.32;100.00;97220.69;5002637;28;20050;-69
2022/06/18 03:38:09;;;;;;;8.43;3.67;;;;;;;14.35;100.00;97217.19;4999815;28;20037;-67
2022/06/18 03:40:35;;;;;;;4.55;3.00;;;;;;;14.42;100.00;97224.69;5005303;28;20056;-70
2022/06/18 03:43:00;;;;;;;6.53;3.03;;;;;;;14.61;100.00;97226.50;5004987;28;20122;-69
2022/06/18 03:45:27;;;;;;;3.63;2.88;;;;;;;14.75;100.00;97220.28;4999961;28;20034;-67
2022/06/18 03:47:52;;;;;;;6.80;2.85;;;;;;;14.76;100.00;97217.16;5002985;28;20042;-66
2022/06/18 03:50:20;;;;;;;7.00;2.80;;;;;;;14.86;100.00;97213.69;4998563;28;20049;-66
2022/06/18 03:52:46;;;;;;;8.90;2.95;;;;;;;14.98;100.00;97218.13;5006152;28;20530;-70
2022/06/18 03:55:13;;;;;;;4.00;2.83;;;;;;;15.08;100.00;97213.84;5000142;28;20076;-65
2022/06/18 03:57:39;;;;;;;5.82;3.00;;;;;;;15.29;100.00;97213.22;5002770;28;20050;-66
2022/06/18 04:00:15;;;;;;;6.20;2.80;;;;;;;15.49;100.00;97217.25;4998708;28;20034;-75
2022/06/18 04:02:41;;;;;;;5.07;2.90;;;;;;;15.64;100.00;97211.81;5004078;28;20069;-66
2022/06/18 04:05:08;;;;;;;4.65;2.85;;;;;;;15.86;100.00;97215.47;4999768;28;20104;-70
2022/06/18 04:07:34;;;;;;;8.65;3.05;;;;;;;16.00;100.00;97218.28;5004929;28;20049;-66
2022/06/18 04:10:01;;;;;;;5.03;2.95;;;;;;;16.16;100.00;97215.16;5004509;28;20509;-68
2022/06/18 04:12:28;;;;;;;4.05;2.80;;;;;;;16.41;98.70;97219.97;4998981;28;20050;-66
2022/06/18 04:14:54;;;;;;;5.60;3.00;;;;;;;16.63;96.63;97224.31;4994086;28;20061;-66
2022/06/18 04:17:20;;;;;;;6.32;3.10;;;;;;;16.81;95.19;97218.81;4995306;28;20462;-67
2022/06/18 04:19:46;;;;;;;7.78;2.95;;;;;;;16.97;93.47;97221.19;5002186;28;20038;-68
2022/06/18 04:22:11;;;;;;;7.13;2.92;;;;;;;17.14;92.54;97224.34;4998796;28;20044;-69
2022/06/18 04:24:36;;;;;;;9.25;2.90;;;;;;;17.27;90.63;97219.19;5004368;28;20096;-72
2022/06/18 04:27:04;;;;;;;5.28;2.60;;;;;;;17.43;89.74;97221.53;4995145;28;20045;-71
2022/06/18 04:29:30;;;;;;;3.75;2.70;;;;;;;17.70;87.89;97219.88;4985012;28;20387;-68
2022/06/18 04:31:55;;;;;;;7.03;2.85;;;;;;;17.98;86.08;97231.28;4989507;28;20375;-68
2022/06/18 04:34:21;;;;;;;5.70;2.67;;;;;;;18.32;83.41;97229.50;5008089;28;20578;-67
2022/06/18 04:36:46;;;;;;;5.53;2.67;;;;;;;18.75;79.38;97239.53;5019164;28;20062;-70
2022/06/18 04:39:13;;;;;;;6.60;2.80;;;;;;;19.26;76.62;97234.38;5014661;28;20163;-69
2022/06/18 04:41:38;;;;;;;7.47;2.55;;;;;;;19.49;73.28;97239.31;5002933;28;20407;-67
2022/06/18 04:44:04;;;;;;;6.68;2.92;;;;;;;20.02;71.31;97237.94;4998727;28;20041;-72
2022/06/18 04:46:30;;;;;;;4.07;2.45;;;;;;;20.25;70.23;97234.44;4999158;28;20041;-70
2022/06/18 04:48:56;;;;;;;4.55;2.47;;;;;;;20.78;68.18;97236.94;5002266;28;20044;-70
2022/06/18 04:51:21;;;;;;;3.83;2.20;;;;;;;21.71;65.01;97237.31;4996763;28;20073;-69
2022/06/18 04:53:47;;;;;;;6.25;2.75;;;;;;;22.65;60.57;97244.53;5002858;28;20061;-70
2022/06/18 04:56:12;;;;;;;4.18;2.40;;;;;;;23.41;56.93;97243.53;4996100;28;20876;-70
2022/06/18 04:58:38;;;;;;;6.20;1.83;;;;;;;23.90;55.46;97243.41;5002240;28;20169;-70
2022/06/18 05:01:04;;;;;;;5.47;2.13;;;;;;;24.59;53.37;97251.41;4999211;28;20048;-73
2022/06/18 05:03:30;;;;;;;4.32;2.45;;;;;;;24.75;51.79;97247.72;4990925;28;20141;-69
2022/06/18 05:05:56;;;;;;;4.00;2.00;;;;;;;25.55;50.96;97243.91;4996961;28;20088;-69
2022/06/18 05:08:22;;;;;;;4.75;2.13;;;;;;;26.14;49.17;97249.03;5019289;23;20166;-69
2022/06/18 05:10:47;;;;;;;6.93;2.33;;;;;;;26.46;47.91;97252.69;5001579;28;20128;-68
2022/06/18 05:13:13;;;;;;;7.18;2.55;;;;;;;26.81;47.00;97258.16;4996422;28;20076;-70
2022/06/18 05:15:40;;;;;;;6.65;2.05;;;;;;;27.29;45.67;97252.25;4999448;28;20050;-69
2022/06/18 05:18:07;;;;;;;5.32;1.77;;;;;;;27.62;43.71;97250.41;4993305;28;20065;-70
2022/06/18 05:20:32;;;;;;;3.33;2.00;;;;;;;27.75;42.67;97244.63;4998648;28;20483;-70
2022/06/18 05:22:58;;;;;;;4.65;2.20;;;;;;;27.96;41.40;97242.91;5001391;28;20037;-67
2022/06/18 05:25:24;;;;;;;4.38;2.22;;;;;;;28.10;40.97;97241.50;4996369;28;20495;-70
2022/06/18 05:27:50;;;;;;;4.53;1.95;;;;;;;28.28;40.89;97242.72;4998003;28;20053;-70
2022/06/18 05:30:21;;;;;;;3.95;1.90;;;;;;;27.90;42.54;97233.56;4993974;28;20649;-69
2022/06/18 05:32:47;;;;;;;4.97;2.17;;;;;;;26.89;44.62;97228.53;4998203;28;20034;-68
2022/06/18 05:35:13;;;;;;;3.58;2.15;;;;;;;27.63;43.65;97228.69;4996664;28;20129;-69
2022/06/18 05:37:39;;;;;;;3.67;2.10;;;;;;;26.87;45.43;97222.59;4999533;28;20088;-68
2022/06/18 05:40:06;;;;;;;3.17;2.00;;;;;;;26.18;45.04;97224.44;4995347;28;20489;-66
2022/06/18 05:42:32;;;;;;;3.22;2.22;;;;;;;26.84;44.92;97229.91;4999237;28;20042;-70
2022/06/18 05:44:57;;;;;;;4.05;2.13;;;;;;;24.76;48.56;97224.06;4997538;28;20038;-68
2022/06/18 05:47:28;;;;;;;3.13;1.90;;;;;;;22.68;55.17;97224.91;4991518;28;20923;-67
2022/06/18 05:49:56;;;;;;;7.72;4.07;;;;;;;24.56;50.41;97226.31;5001344;28;20121;-68
2022/06/18 05:52:22;;;;;;;6.07;3.13;;;;;;;23.98;53.28;97224.41;4995134;28;20054;-68
2022/06/18 05:54:51;;;;;;;5.13;2.28;;;;;;;22.51;57.44;97240.09;4999624;28;20211;-66
2022/06/18 05:57:18;;;;;;;4.07;2.10;;;;;;;22.70;55.47;97232.84;4992943;28;20070;-69
2022/06/18 05:59:44;;;;;;;4.75;2.05;;;;;;;22.81;56.76;97230.59;5001382;28;20641;-69
2022/06/18 06:02:14;;;;;;;6.15;2.40;;;;;;;23.46;55.86;97235.38;4992300;28;20053;-69
2022/06/18 06:04:42;;;;;;;2.35;1.73;;;;;;;25.34;50.03;97223.00;4997924;28;20038;-68
2022/06/18 06:07:12;;;;;;;5.43;2.10;;;;;;;24.23;52.34;97232.06;4992163;28;20046;-69
2022/06/18 06:12:21;;;;;;;5.80;1.80;;;;;;;23.64;53.01;97237.72;4996248;28;20049;-68
2022/06/18 06:14:47;;;;;;;6.80;1.88;;;;;;;23.47;54.02;97245.34;5007220;28;20053;-68
2022/06/18 06:17:16;;;;;;;8.27;3.15;;;;;;;25.38;49.50;97237.66;4994653;28;20046;-66
2022/06/18 06:19:42;;;;;;;5.22;1.75;;;;;;;24.31;50.96;97244.63;5008339;28;20038;-68
2022/06/18 06:22:07;;;;;;;4.18;1.98;;;;;;;25.64;49.60;97242.41;4995310;28;20056;-63
2022/06/18 06:24:33;;;;;;;4.90;1.80;;;;;;;25.39;48.93;97241.28;5001790;28;20042;-63
2022/06/18 06:26:59;;;;;;;4.78;1.98;;;;;;;25.47;49.28;97236.97;4997426;28;20034;-63
2022/06/18 06:29:24;;;;;;;5.90;1.98;;;;;;;26.08;48.40;97245.28;4993955;28;20093;-64
2022/06/18 06:31:49;;;;;;;3.85;2.20;;;;;;;24.39;50.95;97243.19;4990919;28;20566;-65
2022/06/18 06:34:15;;;;;;;4.20;1.88;;;;;;;24.04;53.16;97242.22;4995238;28;20057;-65
2022/06/18 06:36:40;;;;;;;6.82;2.28;;;;;;;24.58;51.04;97241.44;4996773;28;20128;-65
2022/06/18 06:39:06;;;;;;;4.95;2.00;;;;;;;23.65;54.28;97247.66;4995094;28;20429;-65
2022/06/18 06:41:32;;;;;;;5.65;1.92;;;;;;;25.30;50.36;97233.56;4995716;28;20041;-66
2022/06/18 06:43:57;;;;;;;3.55;2.15;;;;;;;26.72;46.64;97225.19;5000107;28;20434;-62
2022/06/18 06:46:23;;;;;;;3.42;2.10;;;;;;;26.02;47.66;97219.03;4995113;28;20131;-63
2022/06/18 06:48:49;;;;;;;4.13;2.10;;;;;;;24.94;51.13;97222.72;4998978;28;20034;-63
2022/06/18 06:51:27;;;;;;;5.97;2.22;;;;;;;26.10;48.17;97223.91;4996377;28;20568;-65
2022/06/18 06:53:52;;;;;;;3.47;1.70;;;;;;;28.68;42.04;97216.31;5003081;28;20495;-65
2022/06/18 06:59:05;;;;;;;3.40;1.90;;;;;;;31.10;37.11;97217.38;4997793;28;20056;-63
2022/06/18 07:01:31;;;;;;;5.30;2.03;;;;;;;29.96;39.48;97221.63;5003393;28;20053;-64
2022/06/18 07:03:56;;;;;;;4.45;2.47;;;;;;;29.02;40.51;97219.94;5003910;28;20041;-64
2022/06/18 07:06:22;;;;;;;6.35;2.83;;;;;;;28.68;40.60;97221.97;4997393;28;21773;-64
2022/06/18 07:08:47;;;;;;;4.57;2.03;;;;;;;29.46;39.93;97220.16;5002181;28;20046;-64
2022/06/18 07:11:14;;;;;;;8.27;1.80;;;;;;;27.77;44.29;97222.44;4997840;28;20046;-65
2022/06/18 07:13:40;;;;;;;4.78;2.45;;;;;;;25.70;47.75;97220.97;5000320;28;20046;-65
2022/06/18 07:16:06;;;;;;;5.30;2.40;;;;;;;25.92;49.06;97216.13;4998242;28;20120;-63
2022/06/18 07:18:35;;;;;;;6.30;2.20;;;;;;;28.03;43.13;97208.81;5002704;28;20410;-64
2022/06/18 07:21:03;;;;;;;8.35;2.45;;;;;;;28.70;41.43;97205.34;5003084;28;20119;-64
2022/06/18 07:23:29;;;;;;;9.23;4.82;;;;;;;26.62;45.71;97212.38;4992417;28;20120;-64
2022/06/18 07:25:55;;;;;;;3.38;1.77;;;;;;;28.00;45.06;97209.78;4998066;28;20581;-65
2022/06/18 07:28:20;;;;;;;2.92;2.00;;;;;;;25.81;48.25;97201.72;4997267;28;20124;-64
2022/06/18 07:30:46;;;;;;;7.63;2.33;;;;;;;26.14;49.67;97201.31;5001307;28;20038;-64
2022/06/18 07:33:18;;;;;;;2.50;1.90;;;;;;;24.97;49.93;97197.41;4981195;28;20096;-65
2022/06/18 07:35:43;;;;;;;5.70;2.60;;;;;;;26.02;48.67;97188.97;4983038;28;20038;-65
2022/06/18 07:38:09;;;;;;;3.45;1.80;;;;;;;28.62;42.23;97185.19;4978404;28;20177;-65
2022/06/18 07:40:41;;;;;;;4.65;2.30;;;;;;;28.79;41.21;97188.41;5003750;28;20049;-64
2022/06/18 07:43:08;;;;;;;5.30;2.00;;;;;;;30.43;38.18;97186.81;4999602;28;20074;-65
2022/06/18 07:45:35;;;;;;;2.90;1.80;;;;;;;30.56;36.60;97191.34;5009145;28;20132;-65
2022/06/18 07:48:00;;;;;;;5.90;2.15;;;;;;;30.03;37.89;97179.66;4995744;28;20041;-65
2022/06/18 07:50:26;;;;;;;4.70;1.88;;;;;;;26.73;45.86;97183.84;4998146;28;20041;-65
2022/06/18 07:52:51;;;;;;;3.08;2.08;;;;;;;26.15;46.25;97177.66;5000167;28;20141;-64
2022/06/18 07:55:21;;;;;;;3.53;2.13;;;;;;;27.05;45.00;97171.28;5001824;28;20195;-66
2022/06/18 07:57:46;;;;;;;;;;;;;;;26.43;45.82;97172.16;5003252;28;20049;-64
2022/06/18 08:00:16;;;;;;;4.43;2.50;;;;;;;26.76;46.89;97174.47;4998237;28;19928;-65
2022/06/18 08:02:43;;;;;;;7.38;2.22;;;;;;;28.55;43.78;97168.63;5001351;28;20041;-65
2022/06/18 08:05:11;;;;;;;5.88;2.10;;;;;;;28.94;41.18;97166.72;4995393;28;20546;-63
2022/06/18 08:07:36;;;;;;;8.73;2.53;;;;;;;29.45;40.82;97167.78;5002031;28;20084;-64
2022/06/18 08:10:03;;;;;;;3.40;2.35;;;;;;;28.95;42.48;97164.66;5002950;28;20162;-62
2022/06/18 08:12:30;;;;;;;5.60;2.45;;;;;;;29.15;41.37;97164.88;4999294;28;20067;-63
2022/06/18 08:14:58;;;;;;;6.22;2.33;;;;;;;27.68;44.21;97160.53;5002881;28;20127;-63
2022/06/18 08:17:23;;;;;;;4.30;2.35;;;;;;;27.50;45.35;97150.06;4996183;28;20534;-65
2022/06/18 08:19:51;;;;;;;3.47;1.80;;;;;;;28.74;41.40;97147.56;5006401;28;20774;-65
2022/06/18 08:22:20;;;;;;;3.97;2.08;;;;;;;29.97;39.52;97142.09;5011768;28;20061;-64
2022/06/18 08:24:46;;;;;;;4.40;2.38;;;;;;;28.17;42.35;97142.63;5006350;28;20062;-65
2022/06/18 08:27:14;;;;;;;8.65;2.10;;;;;;;26.88;45.27;97145.47;4995439;28;20038;-65
2022/06/18 08:29:40;;;;;;;5.50;2.58;;;;;;;26.55;46.98;97151.59;5001440;28;20033;-65
2022/06/18 08:32:06;;;;;;;5.68;2.00;;;;;;;28.26;42.81;97138.22;4997212;28;20041;-63
2022/06/18 08:34:31;;;;;;;3.28;2.13;;;;;;;29.88;39.34;97130.88;5001799;28;20574;-64
2022/06/18 08:36:59;;;;;;;4.43;2.30;;;;;;;29.46;41.18;97137.50;4999742;28;20410;-65
2022/06/18 08:39:24;;;;;;;6.05;2.38;;;;;;;30.04;39.94;97141.69;4996282;28;20087;-63
2022/06/18 08:42:09;;;;;;;3.88;2.60;;;;;;;29.67;38.48;97138.44;5001757;28;20069;-63
2022/06/18 08:45:06;;;;;;;4.40;2.25;;;;;;;30.55;37.52;97139.69;4991456;28;20052;-63
2022/06/18 08:47:56;;;;;;;4.70;2.20;;;;;;;30.08;38.07;97135.84;4992684;28;20026;-64
2022/06/18 08:50:37;;;;;;;3.35;2.20;;;;;;;30.74;36.91;97139.44;4994246;28;20462;-64
2022/06/18 08:53:24;;;;;;;4.13;2.40;;;;;;;28.59;40.85;97139.03;5000730;28;20085;-67
2022/06/18 08:56:02;;;;;;;6.22;1.73;;;;;;;29.43;39.40;97133.63;4998650;28;20042;-64
2022/06/18 08:58:39;;;;;;;3.88;1.80;;;;;;;30.53;36.89;97128.09;4999846;28;20038;-64
2022/06/18 09:01:14;;;;;;;3.03;1.80;;;;;;;30.89;36.46;97123.22;5010709;28;20037;-66
2022/06/18 09:03:48;;;;;;;4.88;2.20;;;;;;;30.35;35.66;97117.03;5001953;28;20043;-65
2022/06/18 09:06:17;;;;;;;5.47;2.17;;;;;;;31.33;36.44;97127.91;4995239;28;20052;-64
2022/06/18 09:08:55;;;;;;;5.13;2.08;;;;;;;31.69;38.19;97122.91;5004085;28;20439;-65
2022/06/18 09:11:43;;;;;;;3.97;2.47;;;;;;;31.49;38.33;97120.13;4999678;28;20732;-65
2022/06/18 09:14:21;;;;;;;4.03;2.30;;;;;;;31.22;38.46;97124.94;4996596;28;20642;-63
2022/06/18 09:16:55;;;;;;;4.00;2.15;;;;;;;31.44;37.58;97113.13;4999669;28;20045;-63
2022/06/18 09:19:25;;;;;;;3.55;2.30;;;;;;;31.91;36.96;97110.22;4994594;28;20107;-64
2022/06/18 09:21:55;;;;;;;3.47;2.30;;;;;;;31.96;38.34;97106.69;4997161;28;20129;-63
2022/06/18 09:24:33;;;;;;;7.07;2.53;;;;;;;31.82;37.16;97108.38;5019683;28;20042;-63
2022/06/18 09:27:27;;;;;;;5.95;2.85;;;;;;;31.85;36.99;97107.34;5000780;28;20112;-64
2022/06/18 09:30:00;;;;;;;5.05;2.10;;;;;;;32.02;37.46;97099.03;4996528;28;20050;-65
2022/06/18 09:32:37;;;;;;;4.65;2.30;;;;;;;31.98;39.07;97098.44;4989902;28;20491;-65
2022/06/18 09:35:35;;;;;;;4.65;2.22;;;;;;;31.81;38.29;97093.41;4989875;28;20046;-67
2022/06/18 09:38:05;;;;;;;4.07;2.30;;;;;;;31.54;38.58;97091.88;4993376;28;20112;-65
2022/06/18 09:40:36;;;;;;;4.95;2.45;;;;;;;31.73;38.39;97092.31;5016078;28;20046;-64
2022/06/18 09:43:10;;;;;;;6.68;2.10;;;;;;;31.99;38.64;97092.28;5002063;28;20103;-64
2022/06/18 09:45:45;;;;;;;8.50;2.60;;;;;;;31.83;39.15;97084.41;4999893;28;20046;-62
2022/06/18 09:48:11;;;;;;;6.95;2.28;;;;;;;31.56;40.23;97089.31;4995610;28;20042;-63
2022/06/18 09:50:41;;;;;;;7.13;2.33;;;;;;;31.69;40.35;97088.16;5000395;28;20046;-62
2022/06/18 09:53:17;;;;;;;3.85;2.38;;;;;;;31.49;40.43;97084.09;4993792;28;20095;-64
2022/06/18 09:55:47;;;;;;;3.83;2.30;;;;;;;31.39;40.89;97086.28;5000339;28;20053;-66
2022/06/18 09:58:43;;;;;;;4.25;2.60;;;;;;;31.27;41.36;97084.63;4994546;28;20046;-66
2022/06/18 10:01:15;;;;;;;4.43;2.55;;;;;;;30.65;41.66;97093.09;4977732;28;20050;-65
2022/06/18 10:09:16;;;;;;;4.93;2.60;;;;;;;29.81;44.45;97077.63;4994294;28;20049;-65
2022/06/18 10:11:42;;;;;;;6.03;2.65;;;;;;;29.93;44.52;97082.97;5000527;28;20041;-65
2022/06/18 10:14:14;;;;;;;3.47;2.40;;;;;;;29.93;43.86;97082.22;4993008;28;20444;-65
2022/06/18 10:17:06;;;;;;;11.23;6.20;;;;;;;29.78;44.92;97073.72;5000332;28;20073;-68
2022/06/18 10:19:45;;;;;;;5.45;2.67;;;;;;;30.08;44.86;97070.88;5000507;28;20376;-64
2022/06/18 10:22:22;;;;;;;5.47;2.70;;;;;;;30.37;44.93;97072.13;4995371;28;20049;-64
2022/06/18 10:25:15;;;;;;;3.17;2.10;;;;;;;30.61;43.93;97067.09;5001995;28;20042;-65
2022/06/18 10:27:52;;;;;;;3.65;2.45;;;;;;;30.83;44.00;97060.16;5019045;28;20037;-65
2022/06/18 10:30:23;;;;;;;6.03;2.67;;;;;;;30.91;43.46;97057.69;5023470;28;20125;-64
2022/06/18 10:33:04;;;;;;;9.05;3.35;;;;;;;30.84;42.43;97054.00;4984976;28;20096;-64
2022/06/18 10:35:45;;;;;;;6.20;3.97;;;;;;;30.93;42.91;97052.34;5002042;28;20384;-65
2022/06/18 10:38:29;;;;;;;7.45;3.90;;;;;;;31.02;42.34;97055.00;5000722;28;20049;-66
2022/06/18 10:41:19;;;;;;;8.13;3.13;;;;;;;31.15;43.31;97055.44;5015105;28;20048;-64
2022/06/18 10:43:55;;;;;;;3.40;2.42;;;;;;;31.08;41.68;97055.06;4998102;28;20046;-63
2022/06/18 10:46:22;;;;;;;4.07;2.70;;;;;;;31.20;43.04;97046.22;4998170;28;20038;-65
2022/06/18 10:48:53;;;;;;;5.88;2.80;;;;;;;31.16;43.71;97047.72;5006622;28;20038;-65
2022/06/18 10:51:25;;;;;;;5.30;2.60;;;;;;;30.77;44.26;97045.94;5004069;28;20184;-64
2022/06/18 10:53:54;;;;;;;6.50;2.97;;;;;;;30.48;45.67;97044.03;5024135;28;20110;-64
2022/06/18 10:56:51;;;;;;;4.35;2.83;;;;;;;30.52;44.41;97044.56;4998924;28;20394;-65
2022/06/18 10:59:29;;;;;;;5.60;2.72;;;;;;;30.69;45.08;97034.28;4998333;28;20491;-63
2022/06/18 11:01:55;;;;;;;6.45;3.53;;;;;;;31.08;45.12;97038.09;5003691;28;20067;-64
2022/06/18 11:04:22;;;;;;;4.88;3.28;;;;;;;31.01;44.83;97031.63;5022021;28;20654;-64
2022/06/18 11:06:52;;;;;;;5.95;2.50;;;;;;;31.04;43.97;97039.13;5010777;28;20041;-64
2022/06/18 11:09:32;;;;;;;6.50;2.88;;;;;;;31.20;43.17;97034.88;5009377;28;20056;-62
2022/06/18 11:12:05;;;;;;;4.82;2.80;;;;;;;31.11;42.85;97032.22;5004117;28;20042;-66
2022/06/18 11:14:41;;;;;;;3.50;2.50;;;;;;;31.04;43.41;97024.97;5003659;28;20046;-65
2022/06/18 11:17:20;;;;;;;4.85;2.75;;;;;;;30.97;43.71;97028.22;5001044;28;20057;-66
2022/06/18 11:19:51;;;;;;;6.32;2.70;;;;;;;30.95;44.66;97019.44;5019251;28;20096;-65
2022/06/18 11:22:28;;;;;;;7.20;2.63;;;;;;;30.87;43.86;97015.47;5003225;28;20402;-65
2022/06/18 11:24:59;;;;;;;4.82;3.10;;;;;;;31.25;42.77;97011.53;5003300;28;20064;-65
2022/06/18 11:27:35;;;;;;;4.03;2.47;;;;;;;31.28;42.66;97006.97;4998385;28;20033;-63
2022/06/18 11:30:08;;;;;;;6.80;2.67;;;;;;;31.64;42.15;97001.91;5005865;28;20038;-65
2022/06/18 11:32:44;;;;;;;3.25;2.28;;;;;;;31.44;42.17;97003.50;5005232;28;20041;-65
2022/06/18 11:35:13;;;;;;;3.70;2.22;;;;;;;31.35;42.69;96998.03;4998405;28;20129;-66
2022/06/18 11:37:39;;;;;;;5.10;2.17;;;;;;;31.54;40.11;96998.47;5002754;28;20054;-64
2022/06/18 11:40:09;;;;;;;3.47;2.13;;;;;;;31.90;44.44;96993.34;5008889;28;20053;-65
2022/06/18 11:42:53;;;;;;;5.03;2.42;;;;;;;32.03;41.91;96987.25;5005706;28;20037;-64
2022/06/18 11:45:25;;;;;;;3.53;2.30;;;;;;;31.83;42.00;96983.25;4997051;28;20049;-64
2022/06/18 11:48:03;;;;;;;3.47;2.38;;;;;;;31.89;41.54;96980.47;5001637;28;20084;-64
2022/06/18 11:50:42;;;;;;;7.75;3.78;;;;;;;32.20;39.40;96978.91;4994098;28;20048;-63
2022/06/18 11:53:16;;;;;;;5.78;2.38;;;;;;;32.10;40.29;96974.72;4996500;28;20050;-64
2022/06/18 11:55:50;;;;;;;3.65;2.17;;;;;;;32.05;39.37;96970.53;5002205;28;20409;-65
2022/06/18 11:58:30;;;;;;;6.80;2.17;;;;;;;32.58;39.06;96965.41;5010678;28;20065;-65
2022/06/18 12:01:10;;;;;;;4.68;2.17;;;;;;;32.91;37.14;96959.09;5022841;28;20105;-65